Time;durP1;ratioP1;P1;durP2;ratioP2;P2;SDS_P1;SDS_P2;PMS_P1;PMS_P2;Temp;Humidity;BMP_temperature;BMP_pressure;BME280_temperature;BME280_humidity;BME280_pressure;Samples;Min_cycle;Max_cycle;Signal;HPM_P1;HPM_P2
2022/10/07 00:00:19;;;;;;;8.73;5.47;;;;;;;;;;5057306;28;20036;-81
2022/10/07 00:02:45;;;;;;;9.18;5.80;;;;;;;;;;5058143;28;20029;-81
2022/10/07 00:05:11;;;;;;;7.82;5.40;;;;;;;;;;5058905;28;20082;-81
2022/10/07 00:07:37;;;;;;;9.10;6.18;;;;;;;;;;5057360;28;20014;-80
2022/10/07 00:10:04;;;;;;;12.07;6.20;;;;;;;;;;5058058;28;20087;-81
2022/10/07 00:12:30;;;;;;;11.30;5.97;;;;;;;;;;5039516;28;20553;-80
2022/10/07 00:14:56;;;;;;;9.80;5.70;;;;;;;;;;5057256;28;20043;-81
2022/10/07 00:17:22;;;;;;;8.52;5.85;;;;;;;;;;5057753;28;20066;-81
2022/10/07 00:19:50;;;;;;;9.40;6.03;;;;;;;;;;5057377;28;20060;-81
2022/10/07 00:22:16;;;;;;;8.68;6.15;;;;;;;;;;5052421;28;20025;-81
2022/10/07 00:24:42;;;;;;;7.78;5.88;;;;;;;;;;5058070;28;20025;-81
2022/10/07 00:27:08;;;;;;;10.15;6.20;;;;;;;;;;5055763;28;20036;-80
2022/10/07 00:29:34;;;;;;;9.90;5.60;;;;;;;;;;5056757;28;20034;-81
2022/10/07 00:32:00;;;;;;;7.65;5.63;;;;;;;;;;5055576;28;20033;-81
2022/10/07 00:34:26;;;;;;;9.75;6.50;;;;;;;;;;5057277;28;20021;-81
2022/10/07 00:36:52;;;;;;;7.65;5.60;;;;;;;;;;5056789;28;20021;-80
2022/10/07 00:39:18;;;;;;;8.02;5.30;;;;;;;;;;5057163;28;20096;-81
2022/10/07 00:41:49;;;;;;;8.57;6.35;;;;;;;;;;5055429;28;20029;-81
2022/10/07 00:44:34;;;;;;;8.93;6.55;;;;;;;;;;5056580;28;20021;-81
2022/10/07 00:47:23;;;;;;;11.77;7.22;;;;;;;;;;5057041;28;20475;-81
2022/10/07 00:49:52;;;;;;;9.10;6.30;;;;;;;;;;5046734;28;20034;-79
2022/10/07 00:52:19;;;;;;;9.18;6.22;;;;;;;;;;5051720;28;20115;-79
2022/10/07 00:54:47;;;;;;;10.57;6.32;;;;;;;;;;5055535;28;20017;-81
2022/10/07 00:57:13;;;;;;;10.55;6.68;;;;;;;;;;5036513;28;20032;-80
2022/10/07 00:59:40;;;;;;;11.70;6.85;;;;;;;;;;5052135;28;20028;-80
2022/10/07 01:02:07;;;;;;;9.52;6.18;;;;;;;;;;5054416;28;20017;-80
2022/10/07 01:04:33;;;;;;;7.70;5.35;;;;;;;;;;5054543;28;20555;-80
2022/10/07 01:06:59;;;;;;;8.90;6.00;;;;;;;;;;5054403;28;20025;-80
2022/10/07 01:09:25;;;;;;;9.98;6.57;;;;;;;;;;5053652;28;20029;-80
2022/10/07 01:12:07;;;;;;;8.07;6.30;;;;;;;;;;5052661;28;20112;-80
2022/10/07 01:14:39;;;;;;;9.70;6.80;;;;;;;;;;5054074;28;20556;-80
2022/10/07 01:17:29;;;;;;;9.85;6.68;;;;;;;;;;5052790;28;20120;-80
2022/10/07 01:19:58;;;;;;;8.90;6.45;;;;;;;;;;5016885;28;20522;-80
2022/10/07 01:22:43;;;;;;;10.18;7.05;;;;;;;;;;5054798;28;20395;-80
2022/10/07 01:25:17;;;;;;;11.07;6.85;;;;;;;;;;5049949;28;20052;-80
2022/10/07 01:27:48;;;;;;;10.10;6.88;;;;;;;;;;5054135;28;20029;-80
2022/10/07 01:30:14;;;;;;;9.68;6.53;;;;;;;;;;5054000;28;20044;-80
2022/10/07 01:32:43;;;;;;;9.13;6.85;;;;;;;;;;5035725;28;20052;-80
2022/10/07 01:35:14;;;;;;;10.68;6.63;;;;;;;;;;5051737;28;20036;-79
2022/10/07 01:37:42;;;;;;;10.48;6.75;;;;;;;;;;5053480;28;20029;-80
2022/10/07 01:40:11;;;;;;;13.07;7.65;;;;;;;;;;5053778;28;20053;-80
2022/10/07 01:42:38;;;;;;;11.77;7.20;;;;;;;;;;5054307;28;20191;-80
2022/10/07 01:45:05;;;;;;;11.38;7.43;;;;;;;;;;5052904;28;20351;-80
2022/10/07 01:47:32;;;;;;;12.30;7.60;;;;;;;;;;5053922;28;20048;-80
2022/10/07 01:49:58;;;;;;;12.60;7.88;;;;;;;;;;5035312;28;20119;-80
2022/10/07 01:52:30;;;;;;;10.30;7.20;;;;;;;;;;5053202;28;20060;-80
2022/10/07 01:55:11;;;;;;;10.82;8.20;;;;;;;;;;5053409;28;20032;-80
2022/10/07 01:57:47;;;;;;;11.30;7.57;;;;;;;;;;5046553;28;20105;-80
2022/10/07 02:00:14;;;;;;;12.40;7.65;;;;;;;;;;5057775;28;20036;-80
2022/10/07 02:02:52;;;;;;;11.85;7.40;;;;;;;;;;5039518;28;20029;-80
2022/10/07 02:05:30;;;;;;;12.48;8.38;;;;;;;;;;5057109;28;20087;-80
2022/10/07 02:08:11;;;;;;;13.65;8.45;;;;;;;;;;5056316;28;20036;-80
2022/10/07 02:11:07;;;;;;;12.02;8.27;;;;;;;;;;5057485;28;20154;-80
2022/10/07 02:13:37;;;;;;;13.30;8.88;;;;;;;;;;5036679;28;20128;-80
2022/10/07 02:16:09;;;;;;;12.90;8.20;;;;;;;;;;5056446;28;20108;-80
2022/10/07 02:18:36;;;;;;;12.10;7.97;;;;;;;;;;5039523;28;20040;-80
2022/10/07 02:21:04;;;;;;;12.50;8.15;;;;;;;;;;5039555;28;20071;-80
2022/10/07 02:23:33;;;;;;;13.27;8.77;;;;;;;;;;5057812;28;20464;-80
2022/10/07 02:26:00;;;;;;;12.52;8.77;;;;;;;;;;5057566;28;20036;-79
2022/10/07 02:28:26;;;;;;;12.10;8.77;;;;;;;;;;5056615;28;20021;-79
2022/10/07 02:30:55;;;;;;;13.00;9.10;;;;;;;;;;5057306;28;20111;-78
2022/10/07 02:33:23;;;;;;;13.32;8.88;;;;;;;;;;5058220;28;20033;-78
2022/10/07 02:35:53;;;;;;;12.38;7.95;;;;;;;;;;5057014;28;20091;-80
2022/10/07 02:38:20;;;;;;;11.80;8.50;;;;;;;;;;5055204;28;20049;-79
2022/10/07 02:40:49;;;;;;;11.77;8.48;;;;;;;;;;5056522;28;20024;-80
2022/10/07 02:43:19;;;;;;;13.23;9.25;;;;;;;;;;5057160;28;20033;-79
2022/10/07 02:45:49;;;;;;;14.00;8.52;;;;;;;;;;5056383;28;20024;-80
2022/10/07 02:48:20;;;;;;;11.18;7.43;;;;;;;;;;5056029;28;20073;-79
2022/10/07 02:50:49;;;;;;;15.75;8.20;;;;;;;;;;5056963;28;20025;-80
2022/10/07 02:53:15;;;;;;;11.60;8.00;;;;;;;;;;5039114;28;20025;-80
2022/10/07 02:55:43;;;;;;;13.88;7.90;;;;;;;;;;5039920;28;20033;-81
2022/10/07 02:58:11;;;;;;;12.43;8.80;;;;;;;;;;5057104;28;20479;-79
2022/10/07 03:00:38;;;;;;;12.23;8.73;;;;;;;;;;5053246;28;20211;-79
2022/10/07 03:03:07;;;;;;;12.35;8.43;;;;;;;;;;5027834;28;20427;-79
2022/10/07 03:05:34;;;;;;;12.52;8.20;;;;;;;;;;5038842;28;20024;-80
2022/10/07 03:08:02;;;;;;;11.70;7.70;;;;;;;;;;5054836;28;20025;-80
2022/10/07 03:10:28;;;;;;;12.98;8.43;;;;;;;;;;5055799;28;20391;-79
2022/10/07 03:12:54;;;;;;;12.15;8.60;;;;;;;;;;5056292;28;20028;-80
2022/10/07 03:15:24;;;;;;;13.27;8.85;;;;;;;;;;5053493;28;20500;-80
2022/10/07 03:17:50;;;;;;;13.10;8.30;;;;;;;;;;5058168;28;20025;-81
2022/10/07 03:20:16;;;;;;;14.57;8.68;;;;;;;;;;5057255;28;20025;-80
2022/10/07 03:22:43;;;;;;;14.50;8.90;;;;;;;;;;5057964;28;20024;-79
2022/10/07 03:25:10;;;;;;;13.02;8.60;;;;;;;;;;5056683;28;20028;-79
2022/10/07 03:27:37;;;;;;;12.90;9.15;;;;;;;;;;5055935;28;20056;-79
2022/10/07 03:30:04;;;;;;;12.88;8.20;;;;;;;;;;5055963;28;20048;-80
2022/10/07 03:32:30;;;;;;;10.77;8.32;;;;;;;;;;5056945;28;20025;-80
2022/10/07 03:34:56;;;;;;;11.73;8.07;;;;;;;;;;5056416;28;20123;-80
2022/10/07 03:37:22;;;;;;;13.38;8.85;;;;;;;;;;5038276;28;20489;-80
2022/10/07 03:39:49;;;;;;;13.07;8.00;;;;;;;;;;5054509;28;20090;-80
2022/10/07 03:42:15;;;;;;;11.23;8.45;;;;;;;;;;5055259;28;20025;-80
2022/10/07 03:44:41;;;;;;;13.50;8.95;;;;;;;;;;5055546;28;20029;-80
2022/10/07 03:47:07;;;;;;;13.18;9.63;;;;;;;;;;5022961;28;20488;-80
2022/10/07 03:49:34;;;;;;;13.23;9.20;;;;;;;;;;5054991;28;20085;-80
2022/10/07 03:52:01;;;;;;;13.80;9.00;;;;;;;;;;5055060;28;20032;-80
2022/10/07 03:54:27;;;;;;;12.55;8.93;;;;;;;;;;5038300;28;20115;-80
2022/10/07 03:56:53;;;;;;;12.68;9.02;;;;;;;;;;5054283;28;20514;-79
2022/10/07 03:59:19;;;;;;;16.00;10.43;;;;;;;;;;5055549;28;20024;-79
2022/10/07 04:01:45;;;;;;;14.88;10.23;;;;;;;;;;5055689;28;20044;-78
2022/10/07 04:04:11;;;;;;;14.30;9.68;;;;;;;;;;5054784;28;20071;-78
2022/10/07 04:06:37;;;;;;;14.32;9.70;;;;;;;;;;5055306;28;20021;-78
2022/10/07 04:09:04;;;;;;;15.43;9.93;;;;;;;;;;5055398;28;20033;-80
2022/10/07 04:11:30;;;;;;;13.77;8.30;;;;;;;;;;5053997;28;20371;-79
2022/10/07 04:13:59;;;;;;;14.10;8.02;;;;;;;;;;5035774;28;20040;-80
2022/10/07 04:16:26;;;;;;;11.63;8.52;;;;;;;;;;5053310;28;20051;-80
2022/10/07 04:18:56;;;;;;;15.93;9.88;;;;;;;;;;5053628;28;20021;-80
2022/10/07 04:21:22;;;;;;;13.52;9.25;;;;;;;;;;5054014;28;20025;-79
2022/10/07 04:23:48;;;;;;;14.85;9.48;;;;;;;;;;5054880;28;20084;-80
2022/10/07 04:26:14;;;;;;;13.02;8.98;;;;;;;;;;5052704;28;20025;-80
2022/10/07 04:28:40;;;;;;;15.75;10.60;;;;;;;;;;5053329;28;20070;-80
2022/10/07 04:31:07;;;;;;;19.42;10.73;;;;;;;;;;5053749;28;20089;-80
2022/10/07 04:33:34;;;;;;;17.83;12.02;;;;;;;;;;5058837;28;20029;-81
2022/10/07 04:36:08;;;;;;;21.98;11.98;;;;;;;;;;5036750;28;20016;-80
2022/10/07 04:38:34;;;;;;;23.60;11.77;;;;;;;;;;5053831;28;20108;-81
2022/10/07 04:41:03;;;;;;;19.75;12.07;;;;;;;;;;5035377;28;20025;-80
2022/10/07 04:43:32;;;;;;;16.90;10.15;;;;;;;;;;5036418;28;20025;-80
2022/10/07 04:46:05;;;;;;;21.05;12.18;;;;;;;;;;5054564;28;20020;-81
2022/10/07 04:48:31;;;;;;;;;;;;;;;;;;5069827;28;20081;-81
2022/10/07 04:51:02;;;;;;;17.63;11.07;;;;;;;;;;5066070;28;20401;-80
2022/10/07 04:53:30;;;;;;;19.23;11.30;;;;;;;;;;5056839;28;20391;-80
2022/10/07 04:55:56;;;;;;;21.90;12.35;;;;;;;;;;5063633;28;20569;-80
2022/10/07 04:58:22;;;;;;;22.95;12.10;;;;;;;;;;5053873;28;20040;-80
2022/10/07 05:00:49;;;;;;;19.45;11.95;;;;;;;;;;5050597;28;20174;-81
2022/10/07 05:03:16;;;;;;;20.38;11.95;;;;;;;;;;5049268;28;20032;-80
2022/10/07 05:05:43;;;;;;;20.30;10.75;;;;;;;;;;5052159;28;20112;-81
2022/10/07 05:08:09;;;;;;;17.45;10.15;;;;;;;;;;5051460;28;20407;-81
2022/10/07 05:10:36;;;;;;;12.35;9.63;;;;;;;;;;5052989;28;20090;-81
2022/10/07 05:13:03;;;;;;;16.90;10.75;;;;;;;;;;5051992;28;20033;-81
2022/10/07 05:15:29;;;;;;;17.20;11.27;;;;;;;;;;5052186;28;20020;-82
2022/10/07 05:17:54;;;;;;;14.18;10.95;;;;;;;;;;5052471;28;20055;-82
2022/10/07 05:20:21;;;;;;;18.63;11.38;;;;;;;;;;5053549;28;20033;-82
2022/10/07 05:22:47;;;;;;;15.43;10.43;;;;;;;;;;5052500;28;20116;-81
2022/10/07 05:25:14;;;;;;;19.13;11.65;;;;;;;;;;5052546;28;20471;-81
2022/10/07 05:27:40;;;;;;;19.95;12.82;;;;;;;;;;5051391;28;20076;-81
2022/10/07 05:30:07;;;;;;;16.92;11.95;;;;;;;;;;5050871;28;20293;-80
2022/10/07 05:32:33;;;;;;;16.50;11.95;;;;;;;;;;5054025;28;20136;-81
2022/10/07 05:35:00;;;;;;;17.38;11.73;;;;;;;;;;5058097;28;20025;-81
2022/10/07 05:37:26;;;;;;;21.30;11.82;;;;;;;;;;5056603;28;20386;-81
2022/10/07 05:39:52;;;;;;;15.60;10.88;;;;;;;;;;5056462;28;20029;-81
2022/10/07 05:42:19;;;;;;;18.52;11.40;;;;;;;;;;5052563;28;20044;-82
2022/10/07 05:44:45;;;;;;;19.90;12.95;;;;;;;;;;5056113;28;20059;-82
2022/10/07 05:47:11;;;;;;;25.67;13.52;;;;;;;;;;5056792;28;20025;-82
2022/10/07 05:49:37;;;;;;;20.20;13.88;;;;;;;;;;5057072;28;20025;-82
2022/10/07 05:52:03;;;;;;;19.20;13.35;;;;;;;;;;5058865;28;20036;-82
2022/10/07 05:54:31;;;;;;;22.02;13.43;;;;;;;;;;5058284;28;20486;-81
2022/10/07 05:56:57;;;;;;;28.38;14.48;;;;;;;;;;5056832;28;20025;-82
2022/10/07 05:59:23;;;;;;;20.05;13.70;;;;;;;;;;5057322;28;20036;-81
2022/10/07 06:01:50;;;;;;;22.73;14.77;;;;;;;;;;5040857;28;20040;-81
2022/10/07 06:04:18;;;;;;;21.95;14.85;;;;;;;;;;5058699;28;20202;-81
2022/10/07 06:06:45;;;;;;;23.45;15.25;;;;;;;;;;5056224;28;20017;-81
2022/10/07 06:14:40;;;;;;;25.10;17.00;;;;;;;;;;5052531;28;20051;-81
2022/10/07 06:17:07;;;;;;;33.65;16.85;;;;;;;;;;5047846;28;20029;-81
2022/10/07 06:19:33;;;;;;;28.77;17.02;;;;;;;;;;5042287;28;20061;-81
2022/10/07 06:21:59;;;;;;;27.33;16.77;;;;;;;;;;5060127;28;20099;-81
2022/10/07 06:24:25;;;;;;;26.67;17.83;;;;;;;;;;5051942;28;20047;-81
2022/10/07 06:26:54;;;;;;;27.52;18.02;;;;;;;;;;5059617;28;20032;-81
2022/10/07 06:29:20;;;;;;;26.63;18.02;;;;;;;;;;5036050;28;20025;-81
2022/10/07 06:31:46;;;;;;;25.55;18.10;;;;;;;;;;5033369;28;20399;-81
2022/10/07 06:34:12;;;;;;;26.10;17.20;;;;;;;;;;5058454;28;20475;-80
2022/10/07 06:36:38;;;;;;;27.27;17.52;;;;;;;;;;5056345;28;20132;-81
2022/10/07 06:39:04;;;;;;;25.00;17.30;;;;;;;;;;5058375;28;20068;-81
2022/10/07 06:41:30;;;;;;;27.52;17.15;;;;;;;;;;5057725;28;20058;-81
2022/10/07 06:43:56;;;;;;;23.17;15.63;;;;;;;;;;5058531;28;20130;-81
2022/10/07 06:46:22;;;;;;;25.13;16.85;;;;;;;;;;5058681;28;20025;-81
2022/10/07 06:48:49;;;;;;;26.67;17.10;;;;;;;;;;5039382;28;20037;-81
2022/10/07 06:51:16;;;;;;;26.83;17.25;;;;;;;;;;5054411;28;20088;-81
2022/10/07 06:53:42;;;;;;;24.85;16.75;;;;;;;;;;5052952;28;20029;-81
2022/10/07 06:56:10;;;;;;;26.85;18.02;;;;;;;;;;5058261;28;20025;-81
2022/10/07 06:58:36;;;;;;;27.38;17.33;;;;;;;;;;5057786;28;20029;-81
2022/10/07 07:01:02;;;;;;;22.27;16.70;;;;;;;;;;5055022;28;20045;-81
2022/10/07 07:03:28;;;;;;;23.77;15.95;;;;;;;;;;5055907;28;20021;-81
2022/10/07 07:05:55;;;;;;;24.17;16.25;;;;;;;;;;5055441;28;20050;-80
2022/10/07 07:08:22;;;;;;;21.70;15.50;;;;;;;;;;5040800;28;20463;-82
2022/10/07 07:10:48;;;;;;;23.30;15.52;;;;;;;;;;5049030;28;20044;-81
2022/10/07 07:13:14;;;;;;;19.85;13.73;;;;;;;;;;5043710;28;20086;-81
2022/10/07 07:15:40;;;;;;;24.45;16.40;;;;;;;;;;5047134;28;20464;-81
2022/10/07 07:18:08;;;;;;;24.15;16.33;;;;;;;;;;5054973;28;20024;-81
2022/10/07 07:20:37;;;;;;;20.92;16.15;;;;;;;;;;5057432;28;20482;-82
2022/10/07 07:23:04;;;;;;;22.45;16.33;;;;;;;;;;5050281;28;20025;-82
2022/10/07 07:25:31;;;;;;;24.13;16.25;;;;;;;;;;5058573;28;20024;-82
2022/10/07 07:28:01;;;;;;;22.65;15.43;;;;;;;;;;5057511;28;20025;-82
2022/10/07 07:30:30;;;;;;;27.23;16.73;;;;;;;;;;5058652;28;20050;-82
2022/10/07 07:32:56;;;;;;;25.52;16.90;;;;;;;;;;5056854;28;20479;-82
2022/10/07 07:35:22;;;;;;;21.48;15.93;;;;;;;;;;5058180;28;20024;-83
2022/10/07 07:37:49;;;;;;;20.88;15.45;;;;;;;;;;5058066;28;20033;-84
2022/10/07 07:40:15;;;;;;;21.38;15.15;;;;;;;;;;5040229;28;20027;-82
2022/10/07 07:42:41;;;;;;;21.80;16.92;;;;;;;;;;5056167;28;20292;-81
2022/10/07 07:45:10;;;;;;;21.33;15.98;;;;;;;;;;5056789;28;20045;-82
2022/10/07 07:47:36;;;;;;;19.48;15.15;;;;;;;;;;5058194;28;20064;-82
2022/10/07 07:50:04;;;;;;;19.85;15.98;;;;;;;;;;5054393;28;20025;-80
2022/10/07 07:52:30;;;;;;;21.52;16.45;;;;;;;;;;5053276;28;20502;-81
2022/10/07 07:54:57;;;;;;;21.10;16.75;;;;;;;;;;5056779;28;20029;-81
2022/10/07 07:57:24;;;;;;;19.90;16.95;;;;;;;;;;5057752;28;20102;-82
2022/10/07 07:59:51;;;;;;;23.08;17.40;;;;;;;;;;5066489;28;20032;-82
2022/10/07 08:02:17;;;;;;;21.08;17.25;;;;;;;;;;5054543;28;20507;-81
2022/10/07 08:04:43;;;;;;;20.10;16.10;;;;;;;;;;5038371;28;20074;-82
2022/10/07 08:07:11;;;;;;;19.38;15.82;;;;;;;;;;5057062;28;20074;-83
2022/10/07 08:09:38;;;;;;;19.38;14.93;;;;;;;;;;5056661;28;20135;-83
2022/10/07 08:12:04;;;;;;;20.52;15.60;;;;;;;;;;5057893;28;20036;-83
2022/10/07 08:14:30;;;;;;;20.85;15.02;;;;;;;;;;5056786;28;20035;-83
2022/10/07 08:16:58;;;;;;;20.17;14.57;;;;;;;;;;5056154;28;20443;-84
2022/10/07 08:19:25;;;;;;;20.98;14.65;;;;;;;;;;5072215;28;20025;-84
2022/10/07 08:21:51;;;;;;;19.83;14.85;;;;;;;;;;5060432;28;20094;-83
2022/10/07 08:24:17;;;;;;;20.60;14.20;;;;;;;;;;5057379;28;20029;-84
2022/10/07 08:26:43;;;;;;;20.50;15.48;;;;;;;;;;5056956;28;20305;-84
2022/10/07 08:29:10;;;;;;;19.45;14.90;;;;;;;;;;5057138;28;20112;-84
2022/10/07 08:31:36;;;;;;;19.58;15.30;;;;;;;;;;5054149;28;20391;-83
2022/10/07 08:34:03;;;;;;;22.95;15.32;;;;;;;;;;5056253;28;20044;-83
2022/10/07 08:36:31;;;;;;;20.92;15.38;;;;;;;;;;5054847;28;20029;-83
2022/10/07 08:38:57;;;;;;;19.58;14.50;;;;;;;;;;5038432;28;20029;-81
2022/10/07 08:41:42;;;;;;;20.67;14.93;;;;;;;;;;5052536;28;20032;-83
2022/10/07 08:44:17;;;;;;;19.50;14.60;;;;;;;;;;5054154;28;20029;-82
2022/10/07 08:47:05;;;;;;;22.27;15.50;;;;;;;;;;5056378;28;20025;-84
2022/10/07 08:49:53;;;;;;;22.02;16.10;;;;;;;;;;5043884;28;20444;-82
2022/10/07 08:52:31;;;;;;;18.92;15.10;;;;;;;;;;5038935;28;20055;-83
2022/10/07 08:54:59;;;;;;;20.20;14.70;;;;;;;;;;5039175;28;20029;-82
2022/10/07 08:57:33;;;;;;;20.38;15.77;;;;;;;;;;5053209;28;20021;-83
2022/10/07 09:00:01;;;;;;;22.80;15.88;;;;;;;;;;5055267;28;20506;-84
2022/10/07 09:02:30;;;;;;;21.35;14.98;;;;;;;;;;5054770;28;20056;-83
2022/10/07 09:05:15;;;;;;;21.95;15.73;;;;;;;;;;5055640;28;20541;-84
2022/10/07 09:07:46;;;;;;;19.77;14.23;;;;;;;;;;5055375;28;20110;-83
2022/10/07 09:10:15;;;;;;;22.17;16.23;;;;;;;;;;5057193;28;20025;-82
2022/10/07 09:12:50;;;;;;;20.25;15.75;;;;;;;;;;5053471;28;20051;-81
2022/10/07 09:15:27;;;;;;;22.20;16.27;;;;;;;;;;5056126;28;20052;-83
2022/10/07 09:17:59;;;;;;;21.13;15.40;;;;;;;;;;5054522;28;20416;-83
2022/10/07 09:20:30;;;;;;;21.70;16.27;;;;;;;;;;5055170;28;20033;-82
2022/10/07 09:22:57;;;;;;;20.45;16.23;;;;;;;;;;5043411;28;20423;-81
2022/10/07 09:25:24;;;;;;;20.58;15.35;;;;;;;;;;5054566;28;20025;-83
2022/10/07 09:27:51;;;;;;;17.73;14.57;;;;;;;;;;5056831;28;20024;-83
2022/10/07 09:30:17;;;;;;;19.55;14.32;;;;;;;;;;5053433;28;20388;-83
2022/10/07 09:32:45;;;;;;;19.25;14.38;;;;;;;;;;5051971;28;20025;-82
2022/10/07 09:35:16;;;;;;;17.10;13.00;;;;;;;;;;5043233;28;20025;-82
2022/10/07 09:37:57;;;;;;;18.98;14.10;;;;;;;;;;5056533;28;20440;-83
2022/10/07 09:40:26;;;;;;;17.58;13.75;;;;;;;;;;5027189;28;20034;-84
2022/10/07 09:42:53;;;;;;;18.02;12.85;;;;;;;;;;5040843;28;20552;-81
2022/10/07 09:45:22;;;;;;;17.67;12.50;;;;;;;;;;5060225;28;20079;-81
2022/10/07 09:47:52;;;;;;;16.90;12.30;;;;;;;;;;5057638;28;20037;-80
2022/10/07 09:50:47;;;;;;;19.67;14.77;;;;;;;;;;5037707;28;20115;-80
2022/10/07 09:53:24;;;;;;;20.60;13.70;;;;;;;;;;5037013;28;20048;-82
2022/10/07 09:55:52;;;;;;;19.48;13.40;;;;;;;;;;5050616;28;20060;-82
2022/10/07 09:58:20;;;;;;;17.45;13.43;;;;;;;;;;5037232;28;20036;-81
2022/10/07 10:00:47;;;;;;;19.50;13.90;;;;;;;;;;5056665;28;20033;-82
2022/10/07 10:03:13;;;;;;;16.95;12.38;;;;;;;;;;5052234;28;20029;-81
2022/10/07 10:06:00;;;;;;;17.92;13.38;;;;;;;;;;5055450;28;20507;-81
2022/10/07 10:08:28;;;;;;;20.67;14.43;;;;;;;;;;5056779;28;20021;-82
2022/10/07 10:10:55;;;;;;;19.85;14.07;;;;;;;;;;5057310;28;20054;-82
2022/10/07 10:13:47;;;;;;;18.02;14.68;;;;;;;;;;5057154;28;20025;-82
2022/10/07 10:16:26;;;;;;;19.85;15.15;;;;;;;;;;5053826;28;20052;-81
2022/10/07 10:18:57;;;;;;;18.40;15.35;;;;;;;;;;5059146;28;20032;-81
2022/10/07 10:21:28;;;;;;;21.77;16.30;;;;;;;;;;5058819;28;20055;-83
2022/10/07 10:24:14;;;;;;;21.85;15.85;;;;;;;;;;5039992;28;20029;-82
2022/10/07 10:26:50;;;;;;;22.75;17.15;;;;;;;;;;5039807;28;20017;-80
2022/10/07 10:29:25;;;;;;;20.40;16.90;;;;;;;;;;5059823;28;20055;-84
2022/10/07 10:32:00;;;;;;;22.58;17.42;;;;;;;;;;5058511;28;20059;-80
2022/10/07 10:34:28;;;;;;;21.67;16.85;;;;;;;;;;5059266;28;20031;-81
2022/10/07 10:37:17;;;;;;;19.48;15.73;;;;;;;;;;5064213;28;20032;-82
2022/10/07 10:39:43;;;;;;;23.67;16.02;;;;;;;;;;5041839;28;20036;-85
2022/10/07 10:42:12;;;;;;;18.15;14.30;;;;;;;;;;5042887;28;20025;-82
2022/10/07 10:44:48;;;;;;;17.00;13.13;;;;;;;;;;5050036;28;20020;-83
2022/10/07 10:47:24;;;;;;;17.65;11.55;;;;;;;;;;5060192;28;20052;-83
2022/10/07 10:49:57;;;;;;;13.32;10.50;;;;;;;;;;5059493;28;20036;-83
2022/10/07 10:52:26;;;;;;;14.20;10.13;;;;;;;;;;5058345;28;20036;-84
2022/10/07 10:55:32;;;;;;;13.30;10.77;;;;;;;;;;5060497;28;20029;-82
2022/10/07 10:58:04;;;;;;;14.95;10.10;;;;;;;;;;4958427;28;20059;-82
2022/10/07 11:00:40;;;;;;;12.40;9.80;;;;;;;;;;4967513;28;20142;-83
2022/10/07 11:03:08;;;;;;;15.07;10.52;;;;;;;;;;5014287;28;20059;-83
2022/10/07 11:05:36;;;;;;;17.02;13.38;;;;;;;;;;5040470;28;20498;-81
2022/10/07 11:08:07;;;;;;;15.88;12.88;;;;;;;;;;5029408;28;20025;-85
2022/10/07 11:10:33;;;;;;;14.68;11.95;;;;;;;;;;5042720;28;20074;-82
2022/10/07 11:13:18;;;;;;;16.25;11.88;;;;;;;;;;5043783;28;20025;-83
2022/10/07 11:15:47;;;;;;;14.60;9.90;;;;;;;;;;5060427;28;20032;-83
2022/10/07 11:18:20;;;;;;;12.88;8.95;;;;;;;;;;5060415;28;20434;-83
2022/10/07 11:20:47;;;;;;;13.50;10.35;;;;;;;;;;5064618;28;20025;-81
2022/10/07 11:23:40;;;;;;;12.40;9.70;;;;;;;;;;5070723;28;20025;-82
2022/10/07 11:26:12;;;;;;;11.95;9.32;;;;;;;;;;5061832;28;20453;-83
2022/10/07 11:28:41;;;;;;;11.48;9.13;;;;;;;;;;5057222;28;20021;-83
2022/10/07 11:31:25;;;;;;;15.50;10.95;;;;;;;;;;5042323;28;20056;-85
2022/10/07 11:34:03;;;;;;;16.02;12.77;;;;;;;;;;5061087;28;20032;-81
2022/10/07 11:36:43;;;;;;;15.32;12.05;;;;;;;;;;5059276;28;20116;-84
2022/10/07 11:39:09;;;;;;;12.10;9.43;;;;;;;;;;5059900;28;20029;-82
2022/10/07 11:41:44;;;;;;;13.30;9.45;;;;;;;;;;5060847;28;20095;-83
2022/10/07 11:44:17;;;;;;;10.13;7.90;;;;;;;;;;5059877;28;20560;-84
2022/10/07 11:46:45;;;;;;;11.65;8.05;;;;;;;;;;5043054;28;20093;-82
2022/10/07 11:49:11;;;;;;;11.07;7.75;;;;;;;;;;5040912;28;20166;-82
2022/10/07 11:51:49;;;;;;;10.60;8.52;;;;;;;;;;5058431;28;20025;-82
2022/10/07 11:54:17;;;;;;;12.82;9.50;;;;;;;;;;5059184;28;20028;-83
2022/10/07 11:56:50;;;;;;;10.05;7.22;;;;;;;;;;5059400;28;20029;-84
2022/10/07 11:59:32;;;;;;;11.32;8.48;;;;;;;;;;5038906;28;20086;-83
2022/10/07 12:01:59;;;;;;;10.57;7.63;;;;;;;;;;5058516;28;20078;-82
2022/10/07 12:04:34;;;;;;;9.98;7.75;;;;;;;;;;5041842;28;20033;-84
2022/10/07 12:07:19;;;;;;;9.75;7.82;;;;;;;;;;5067000;28;20349;-83
2022/10/07 12:10:03;;;;;;;10.50;7.55;;;;;;;;;;5059621;28;20087;-81
2022/10/07 12:12:43;;;;;;;9.35;7.45;;;;;;;;;;5055781;28;20036;-82
2022/10/07 12:15:27;;;;;;;11.10;7.95;;;;;;;;;;5055401;28;20071;-83
2022/10/07 12:18:03;;;;;;;11.73;8.65;;;;;;;;;;5054930;28;20344;-83
2022/10/07 12:20:45;;;;;;;10.68;8.05;;;;;;;;;;5047807;28;20383;-83
2022/10/07 12:23:17;;;;;;;11.77;8.40;;;;;;;;;;5039025;28;20527;-85
2022/10/07 12:25:48;;;;;;;11.02;8.32;;;;;;;;;;5054877;28;20021;-82
2022/10/07 12:28:24;;;;;;;9.35;7.60;;;;;;;;;;5057376;28;20108;-84
2022/10/07 12:30:52;;;;;;;14.32;8.93;;;;;;;;;;5040285;28;20040;-83
2022/10/07 12:33:39;;;;;;;11.45;8.32;;;;;;;;;;5051618;28;20074;-85
2022/10/07 12:36:20;;;;;;;12.00;8.90;;;;;;;;;;5040080;28;20099;-83
2022/10/07 12:38:56;;;;;;;9.55;8.10;;;;;;;;;;5057048;28;20033;-82
2022/10/07 12:41:25;;;;;;;8.65;7.40;;;;;;;;;;5057950;28;20033;-82
2022/10/07 12:43:54;;;;;;;9.73;7.07;;;;;;;;;;5041721;28;20025;-83
2022/10/07 12:46:21;;;;;;;8.75;7.05;;;;;;;;;;5057300;28;20087;-84
2022/10/07 12:48:50;;;;;;;9.50;7.20;;;;;;;;;;5058400;28;20039;-82
2022/10/07 12:51:24;;;;;;;8.80;6.75;;;;;;;;;;5039032;28;20025;-83
2022/10/07 12:53:51;;;;;;;9.32;6.20;;;;;;;;;;5054602;28;20044;-83
2022/10/07 12:56:22;;;;;;;9.23;6.10;;;;;;;;;;5059514;28;20047;-83
2022/10/07 13:02:10;;;;;;;8.25;6.15;;;;;;;;;;5055137;28;20124;-82
2022/10/07 13:04:51;;;;;;;7.90;6.07;;;;;;;;;;5041567;28;20017;-83
2022/10/07 13:07:35;;;;;;;7.75;5.93;;;;;;;;;;5055407;28;20592;-82
2022/10/07 13:10:09;;;;;;;6.53;5.18;;;;;;;;;;5052941;28;20458;-82
2022/10/07 13:12:39;;;;;;;8.45;6.03;;;;;;;;;;5020580;28;20091;-81
2022/10/07 13:15:05;;;;;;;8.55;6.55;;;;;;;;;;5057431;28;20021;-81
2022/10/07 13:17:38;;;;;;;11.23;6.85;;;;;;;;;;5059273;28;20468;-81
2022/10/07 13:20:16;;;;;;;8.43;5.70;;;;;;;;;;5059354;28;20025;-81
2022/10/07 13:22:46;;;;;;;7.50;6.35;;;;;;;;;;5047467;28;20414;-83
2022/10/07 13:25:13;;;;;;;8.05;5.78;;;;;;;;;;5059719;28;20025;-83
2022/10/07 13:27:40;;;;;;;7.30;5.93;;;;;;;;;;5039745;28;20055;-81
2022/10/07 13:30:07;;;;;;;8.05;6.55;;;;;;;;;;5058076;28;20024;-81
2022/10/07 13:32:34;;;;;;;7.85;6.18;;;;;;;;;;5043832;28;20383;-82
2022/10/07 13:35:18;;;;;;;8.57;6.40;;;;;;;;;;5060281;28;20021;-81
2022/10/07 13:37:45;;;;;;;8.98;6.20;;;;;;;;;;5030038;28;20040;-81
2022/10/07 13:40:23;;;;;;;8.18;5.28;;;;;;;;;;5061516;28;20047;-83
2022/10/07 13:42:58;;;;;;;6.85;5.35;;;;;;;;;;5043633;28;20029;-83
2022/10/07 13:45:24;;;;;;;7.72;5.80;;;;;;;;;;5059963;28;20080;-84
2022/10/07 13:47:50;;;;;;;7.80;5.68;;;;;;;;;;5060331;28;20041;-82
2022/10/07 13:50:36;;;;;;;8.63;6.45;;;;;;;;;;5057075;28;20390;-82
2022/10/07 13:53:02;;;;;;;8.20;6.03;;;;;;;;;;5060738;28;20412;-81
2022/10/07 13:55:29;;;;;;;7.90;5.90;;;;;;;;;;5047377;28;20039;-84
2022/10/07 13:57:56;;;;;;;8.75;5.97;;;;;;;;;;5066666;28;20028;-81
2022/10/07 14:00:29;;;;;;;8.38;5.95;;;;;;;;;;5058784;28;20036;-81
2022/10/07 14:02:55;;;;;;;8.30;6.50;;;;;;;;;;5046588;28;20491;-83
2022/10/07 14:05:22;;;;;;;8.05;5.55;;;;;;;;;;5044928;28;20368;-81
2022/10/07 14:07:52;;;;;;;7.78;5.40;;;;;;;;;;5044030;28;20032;-82
2022/10/07 14:10:19;;;;;;;9.52;6.28;;;;;;;;;;5047760;28;20025;-84
2022/10/07 14:12:49;;;;;;;7.95;6.35;;;;;;;;;;5060637;28;21246;-80
2022/10/07 14:15:15;;;;;;;8.90;5.72;;;;;;;;;;5037443;28;20028;-83
2022/10/07 14:17:46;;;;;;;8.90;7.05;;;;;;;;;;5062088;28;20392;-82
2022/10/07 14:20:18;;;;;;;8.77;7.03;;;;;;;;;;5063276;28;20019;-82
2022/10/07 14:22:48;;;;;;;9.95;6.68;;;;;;;;;;5052574;28;20018;-80
2022/10/07 14:25:26;;;;;;;8.38;5.97;;;;;;;;;;5059145;28;20214;-82
2022/10/07 14:28:15;;;;;;;8.75;6.50;;;;;;;;;;5060964;28;20390;-82
2022/10/07 14:36:20;;;;;;;8.20;6.20;;;;;;;;;;5046245;28;20040;-83
2022/10/07 14:38:47;;;;;;;9.95;6.60;;;;;;;;;;5061731;28;20021;-85
2022/10/07 14:41:14;;;;;;;8.15;7.15;;;;;;;;;;5062324;28;20039;-85
2022/10/07 14:43:43;;;;;;;9.35;6.43;;;;;;;;;;5064541;28;20106;-84
2022/10/07 14:46:30;;;;;;;8.90;6.50;;;;;;;;;;5043338;28;20013;-83
2022/10/07 14:48:56;;;;;;;10.23;7.50;;;;;;;;;;5062290;28;20063;-81
2022/10/07 14:51:26;;;;;;;9.38;6.38;;;;;;;;;;5062476;28;20406;-81
2022/10/07 14:53:54;;;;;;;9.15;6.32;;;;;;;;;;5045960;28;20029;-83
2022/10/07 14:56:23;;;;;;;7.90;6.57;;;;;;;;;;5044524;28;20025;-82
2022/10/07 14:58:50;;;;;;;9.38;7.57;;;;;;;;;;5046127;28;20048;-85